sensor_id;sensor_type;location;lat;lon;timestamp;temperature;humidity
64689;DHT22;62504;46.070;14.492;2022-12-29T00:02:13;6.80;99.90
64689;DHT22;62504;46.070;14.492;2022-12-29T00:04:39;6.80;99.90
64689;DHT22;62504;46.070;14.492;2022-12-29T00:07:05;6.90;99.90
64689;DHT22;62504;46.070;14.492;2022-12-29T00:09:31;6.90;99.90
64689;DHT22;62504;46.070;14.492;2022-12-29T00:11:57;7.00;99.90
64689;DHT22;62504;46.070;14.492;2022-12-29T00:14:23;6.90;99.90
64689;DHT22;62504;46.070;14.492;2022-12-29T00:17:08;6.90;99.90
64689;DHT22;62504;46.070;14.492;2022-12-29T00:19:33;6.80;99.90
64689;DHT22;62504;46.070;14.492;2022-12-29T00:22:18;6.80;99.90
64689;DHT22;62504;46.070;14.492;2022-12-29T00:25:03;6.70;99.90
64689;DHT22;62504;46.070;14.492;2022-12-29T00:27:35;6.40;99.90
64689;DHT22;62504;46.070;14.492;2022-12-29T00:30:22;6.50;99.90
64689;DHT22;62504;46.070;14.492;2022-12-29T00:33:20;6.50;99.90
64689;DHT22;62504;46.070;14.492;2022-12-29T00:36:20;6.30;99.90
64689;DHT22;62504;46.070;14.492;2022-12-29T00:39:09;6.30;99.90
64689;DHT22;62504;46.070;14.492;2022-12-29T00:41:54;6.20;99.90
64689;DHT22;62504;46.070;14.492;2022-12-29T00:44:38;6.20;99.90
64689;DHT22;62504;46.070;14.492;2022-12-29T00:47:04;6.20;99.90
64689;DHT22;62504;46.070;14.492;2022-12-29T00:49:30;6.30;99.90
64689;DHT22;62504;46.070;14.492;2022-12-29T00:51:57;6.30;99.90
64689;DHT22;62504;46.070;14.492;2022-12-29T00:54:23;6.10;99.90
64689;DHT22;62504;46.070;14.492;2022-12-29T00:56:52;6.10;99.90
64689;DHT22;62504;46.070;14.492;2022-12-29T00:59:19;5.90;99.90
64689;DHT22;62504;46.070;14.492;2022-12-29T01:01:45;6.00;99.90
64689;DHT22;62504;46.070;14.492;2022-12-29T01:04:11;5.90;99.90
64689;DHT22;62504;46.070;14.492;2022-12-29T01:06:38;5.90;99.90
64689;DHT22;62504;46.070;14.492;2022-12-29T01:09:05;5.90;99.90
64689;DHT22;62504;46.070;14.492;2022-12-29T01:11:49;5.90;99.90
64689;DHT22;62504;46.070;14.492;2022-12-29T01:14:16;5.80;99.90
64689;DHT22;62504;46.070;14.492;2022-12-29T01:16:45;5.70;99.90
64689;DHT22;62504;46.070;14.492;2022-12-29T01:19:12;5.70;99.90
64689;DHT22;62504;46.070;14.492;2022-12-29T01:21:38;5.70;99.90
64689;DHT22;62504;46.070;14.492;2022-12-29T01:24:03;5.60;99.90
64689;DHT22;62504;46.070;14.492;2022-12-29T01:26:29;5.70;99.90
64689;DHT22;62504;46.070;14.492;2022-12-29T01:28:55;5.70;99.90
64689;DHT22;62504;46.070;14.492;2022-12-29T01:31:20;5.70;99.90
64689;DHT22;62504;46.070;14.492;2022-12-29T01:33:46;5.70;99.90
64689;DHT22;62504;46.070;14.492;2022-12-29T01:36:14;5.50;99.90
64689;DHT22;62504;46.070;14.492;2022-12-29T01:38:40;5.50;99.90
64689;DHT22;62504;46.070;14.492;2022-12-29T01:41:08;5.60;99.90
64689;DHT22;62504;46.070;14.492;2022-12-29T01:46:22;5.50;99.90
64689;DHT22;62504;46.070;14.492;2022-12-29T01:51:31;5.60;99.90
64689;DHT22;62504;46.070;14.492;2022-12-29T01:54:01;5.60;99.90
64689;DHT22;62504;46.070;14.492;2022-12-29T01:56:28;5.60;99.90
64689;DHT22;62504;46.070;14.492;2022-12-29T01:59:02;5.60;99.90
64689;DHT22;62504;46.070;14.492;2022-12-29T02:01:29;5.70;99.90
64689;DHT22;62504;46.070;14.492;2022-12-29T02:03:55;5.70;99.90
64689;DHT22;62504;46.070;14.492;2022-12-29T02:06:28;5.70;99.90
64689;DHT22;62504;46.070;14.492;2022-12-29T02:08:55;5.70;99.90
64689;DHT22;62504;46.070;14.492;2022-12-29T02:11:23;5.60;99.90
64689;DHT22;62504;46.070;14.492;2022-12-29T02:13:49;5.60;99.90
64689;DHT22;62504;46.070;14.492;2022-12-29T02:21:56;5.50;99.90
64689;DHT22;62504;46.070;14.492;2022-12-29T02:27:47;5.50;99.90
64689;DHT22;62504;46.070;14.492;2022-12-29T02:35:38;5.50;99.90
64689;DHT22;62504;46.070;14.492;2022-12-29T02:41:12;5.40;99.90
64689;DHT22;62504;46.070;14.492;2022-12-29T02:43:59;5.30;99.90
64689;DHT22;62504;46.070;14.492;2022-12-29T02:46:36;5.20;99.90
64689;DHT22;62504;46.070;14.492;2022-12-29T02:49:18;5.20;99.90
64689;DHT22;62504;46.070;14.492;2022-12-29T02:54:19;5.20;99.90
64689;DHT22;62504;46.070;14.492;2022-12-29T02:57:10;5.30;99.90
64689;DHT22;62504;46.070;14.492;2022-12-29T02:59:37;5.30;99.90
64689;DHT22;62504;46.070;14.492;2022-12-29T03:02:24;5.30;99.90
64689;DHT22;62504;46.070;14.492;2022-12-29T03:16:34;5.40;99.90
64689;DHT22;62504;46.070;14.492;2022-12-29T03:19:07;5.30;99.90
64689;DHT22;62504;46.070;14.492;2022-12-29T03:21:39;5.30;99.90
64689;DHT22;62504;46.070;14.492;2022-12-29T03:24:29;5.40;99.90
64689;DHT22;62504;46.070;14.492;2022-12-29T03:26:58;5.40;99.90
64689;DHT22;62504;46.070;14.492;2022-12-29T03:29:26;5.40;99.90
64689;DHT22;62504;46.070;14.492;2022-12-29T03:31:54;5.30;99.90
64689;DHT22;62504;46.070;14.492;2022-12-29T03:34:21;5.10;99.90
64689;DHT22;62504;46.070;14.492;2022-12-29T03:36:52;5.20;99.90
64689;DHT22;62504;46.070;14.492;2022-12-29T03:39:21;5.20;99.90
64689;DHT22;62504;46.070;14.492;2022-12-29T03:41:50;5.30;99.90
64689;DHT22;62504;46.070;14.492;2022-12-29T03:44:16;5.20;99.90
64689;DHT22;62504;46.070;14.492;2022-12-29T03:46:41;5.30;99.90
64689;DHT22;62504;46.070;14.492;2022-12-29T03:49:07;5.20;99.90
64689;DHT22;62504;46.070;14.492;2022-12-29T03:51:33;5.30;99.90
64689;DHT22;62504;46.070;14.492;2022-12-29T03:53:59;5.40;99.90
64689;DHT22;62504;46.070;14.492;2022-12-29T03:56:24;5.40;99.90
64689;DHT22;62504;46.070;14.492;2022-12-29T03:58:50;5.40;99.90
64689;DHT22;62504;46.070;14.492;2022-12-29T04:01:16;5.40;99.90
64689;DHT22;62504;46.070;14.492;2022-12-29T04:03:41;5.50;99.90
64689;DHT22;62504;46.070;14.492;2022-12-29T04:06:07;5.40;99.90
64689;DHT22;62504;46.070;14.492;2022-12-29T04:08:33;5.20;99.90
64689;DHT22;62504;46.070;14.492;2022-12-29T04:10:58;5.30;99.90
64689;DHT22;62504;46.070;14.492;2022-12-29T04:13:24;5.20;99.90
64689;DHT22;62504;46.070;14.492;2022-12-29T04:15:49;5.30;99.90
64689;DHT22;62504;46.070;14.492;2022-12-29T04:18:15;5.30;99.90
64689;DHT22;62504;46.070;14.492;2022-12-29T04:20:41;5.30;99.90
64689;DHT22;62504;46.070;14.492;2022-12-29T04:23:25;5.20;99.90
64689;DHT22;62504;46.070;14.492;2022-12-29T04:25:51;5.20;99.90
64689;DHT22;62504;46.070;14.492;2022-12-29T04:28:17;5.20;99.90
64689;DHT22;62504;46.070;14.492;2022-12-29T04:30:43;5.20;99.90
64689;DHT22;62504;46.070;14.492;2022-12-29T04:33:09;5.10;99.90
64689;DHT22;62504;46.070;14.492;2022-12-29T04:35:34;5.20;99.90
64689;DHT22;62504;46.070;14.492;2022-12-29T04:38:00;5.00;99.90
64689;DHT22;62504;46.070;14.492;2022-12-29T04:40:26;5.00;99.90
64689;DHT22;62504;46.070;14.492;2022-12-29T04:42:52;5.10;99.90
64689;DHT22;62504;46.070;14.492;2022-12-29T04:45:17;5.10;99.90
64689;DHT22;62504;46.070;14.492;2022-12-29T04:47:43;5.20;99.90
64689;DHT22;62504;46.070;14.492;2022-12-29T04:50:09;5.20;99.90
64689;DHT22;62504;46.070;14.492;2022-12-29T04:52:35;5.20;99.90
64689;DHT22;62504;46.070;14.492;2022-12-29T04:55:01;5.30;99.90
64689;DHT22;62504;46.070;14.492;2022-12-29T04:57:27;5.30;99.90
64689;DHT22;62504;46.070;14.492;2022-12-29T04:59:53;5.30;99.90
64689;DHT22;62504;46.070;14.492;2022-12-29T05:02:19;5.40;99.90
64689;DHT22;62504;46.070;14.492;2022-12-29T05:04:44;5.40;99.90
64689;DHT22;62504;46.070;14.492;2022-12-29T05:07:11;5.60;99.90
64689;DHT22;62504;46.070;14.492;2022-12-29T05:09:36;5.60;99.90
64689;DHT22;62504;46.070;14.492;2022-12-29T05:12:02;5.60;99.90
64689;DHT22;62504;46.070;14.492;2022-12-29T05:14:28;5.50;99.90
64689;DHT22;62504;46.070;14.492;2022-12-29T05:16:54;5.40;99.90
64689;DHT22;62504;46.070;14.492;2022-12-29T05:19:19;5.30;99.90
64689;DHT22;62504;46.070;14.492;2022-12-29T05:21:45;5.40;99.90
64689;DHT22;62504;46.070;14.492;2022-12-29T05:24:11;5.40;99.90
64689;DHT22;62504;46.070;14.492;2022-12-29T05:26:36;5.40;99.90
64689;DHT22;62504;46.070;14.492;2022-12-29T05:29:02;5.40;99.90
64689;DHT22;62504;46.070;14.492;2022-12-29T05:31:28;5.40;99.90
64689;DHT22;62504;46.070;14.492;2022-12-29T05:33:53;5.40;99.90
64689;DHT22;62504;46.070;14.492;2022-12-29T05:36:19;5.50;99.90
64689;DHT22;62504;46.070;14.492;2022-12-29T05:38:45;5.60;99.90
64689;DHT22;62504;46.070;14.492;2022-12-29T05:41:10;5.60;99.90
64689;DHT22;62504;46.070;14.492;2022-12-29T05:43:36;5.60;99.90
64689;DHT22;62504;46.070;14.492;2022-12-29T05:46:02;5.60;99.90
64689;DHT22;62504;46.070;14.492;2022-12-29T05:48:28;5.70;99.90
64689;DHT22;62504;46.070;14.492;2022-12-29T05:50:54;5.60;99.90
64689;DHT22;62504;46.070;14.492;2022-12-29T05:53:19;5.70;99.90
64689;DHT22;62504;46.070;14.492;2022-12-29T05:55:47;5.70;99.90
64689;DHT22;62504;46.070;14.492;2022-12-29T05:58:12;5.70;99.90
64689;DHT22;62504;46.070;14.492;2022-12-29T06:00:38;5.80;99.90
64689;DHT22;62504;46.070;14.492;2022-12-29T06:03:04;5.90;99.90
64689;DHT22;62504;46.070;14.492;2022-12-29T06:05:30;5.90;99.90
64689;DHT22;62504;46.070;14.492;2022-12-29T06:07:55;5.80;99.90
64689;DHT22;62504;46.070;14.492;2022-12-29T06:10:21;5.70;99.90
64689;DHT22;62504;46.070;14.492;2022-12-29T06:12:46;5.70;99.90
64689;DHT22;62504;46.070;14.492;2022-12-29T06:15:12;5.80;99.90
64689;DHT22;62504;46.070;14.492;2022-12-29T06:17:38;5.90;99.90
64689;DHT22;62504;46.070;14.492;2022-12-29T06:20:04;5.90;99.90
64689;DHT22;62504;46.070;14.492;2022-12-29T06:22:30;5.90;99.90
64689;DHT22;62504;46.070;14.492;2022-12-29T06:24:56;5.90;99.90
64689;DHT22;62504;46.070;14.492;2022-12-29T06:27:21;6.00;99.90
64689;DHT22;62504;46.070;14.492;2022-12-29T06:29:47;5.90;99.90
64689;DHT22;62504;46.070;14.492;2022-12-29T06:32:13;5.80;99.90
64689;DHT22;62504;46.070;14.492;2022-12-29T06:34:38;5.90;99.90
64689;DHT22;62504;46.070;14.492;2022-12-29T06:37:04;5.90;99.90
64689;DHT22;62504;46.070;14.492;2022-12-29T06:39:29;6.00;99.90
64689;DHT22;62504;46.070;14.492;2022-12-29T06:41:55;6.00;99.90
64689;DHT22;62504;46.070;14.492;2022-12-29T06:44:21;6.10;99.90
64689;DHT22;62504;46.070;14.492;2022-12-29T06:46:47;6.10;99.90
64689;DHT22;62504;46.070;14.492;2022-12-29T06:49:13;5.90;99.90
64689;DHT22;62504;46.070;14.492;2022-12-29T06:51:39;5.90;99.90
64689;DHT22;62504;46.070;14.492;2022-12-29T06:54:05;5.80;99.90
64689;DHT22;62504;46.070;14.492;2022-12-29T06:56:31;6.00;99.90
64689;DHT22;62504;46.070;14.492;2022-12-29T06:58:56;6.10;99.90
64689;DHT22;62504;46.070;14.492;2022-12-29T07:01:22;6.20;99.90
64689;DHT22;62504;46.070;14.492;2022-12-29T07:03:48;6.30;99.90
64689;DHT22;62504;46.070;14.492;2022-12-29T07:06:13;6.40;99.90
64689;DHT22;62504;46.070;14.492;2022-12-29T07:08:41;6.50;99.90
64689;DHT22;62504;46.070;14.492;2022-12-29T07:11:10;6.50;99.90
64689;DHT22;62504;46.070;14.492;2022-12-29T07:13:35;6.50;99.90
64689;DHT22;62504;46.070;14.492;2022-12-29T07:16:08;6.60;99.90
64689;DHT22;62504;46.070;14.492;2022-12-29T07:18:34;6.60;99.90
64689;DHT22;62504;46.070;14.492;2022-12-29T07:21:00;6.60;99.90
64689;DHT22;62504;46.070;14.492;2022-12-29T07:23:26;6.60;99.90
64689;DHT22;62504;46.070;14.492;2022-12-29T07:26:02;6.60;99.90
64689;DHT22;62504;46.070;14.492;2022-12-29T07:28:28;6.60;99.90
64689;DHT22;62504;46.070;14.492;2022-12-29T07:30:54;6.60;99.90
64689;DHT22;62504;46.070;14.492;2022-12-29T07:33:19;6.50;99.90
64689;DHT22;62504;46.070;14.492;2022-12-29T07:35:46;6.60;99.90
64689;DHT22;62504;46.070;14.492;2022-12-29T07:38:12;6.70;99.90
64689;DHT22;62504;46.070;14.492;2022-12-29T07:40:37;6.80;99.90
64689;DHT22;62504;46.070;14.492;2022-12-29T07:43:03;6.70;99.90
64689;DHT22;62504;46.070;14.492;2022-12-29T07:45:29;6.60;99.90
64689;DHT22;62504;46.070;14.492;2022-12-29T07:47:55;6.50;99.90
64689;DHT22;62504;46.070;14.492;2022-12-29T07:50:21;6.50;99.90
64689;DHT22;62504;46.070;14.492;2022-12-29T07:52:46;6.40;99.90
64689;DHT22;62504;46.070;14.492;2022-12-29T07:55:16;6.40;99.90
64689;DHT22;62504;46.070;14.492;2022-12-29T07:57:42;6.50;99.90
64689;DHT22;62504;46.070;14.492;2022-12-29T08:00:08;6.50;99.90
64689;DHT22;62504;46.070;14.492;2022-12-29T08:02:35;6.60;99.90
64689;DHT22;62504;46.070;14.492;2022-12-29T08:05:01;6.60;99.90
64689;DHT22;62504;46.070;14.492;2022-12-29T08:07:26;6.60;99.90
64689;DHT22;62504;46.070;14.492;2022-12-29T08:09:52;6.70;99.90
64689;DHT22;62504;46.070;14.492;2022-12-29T08:12:18;6.80;99.90
64689;DHT22;62504;46.070;14.492;2022-12-29T08:14:43;6.90;99.90
64689;DHT22;62504;46.070;14.492;2022-12-29T08:17:09;7.00;99.90
64689;DHT22;62504;46.070;14.492;2022-12-29T08:19:44;7.00;99.90
64689;DHT22;62504;46.070;14.492;2022-12-29T08:22:13;7.10;99.90
64689;DHT22;62504;46.070;14.492;2022-12-29T08:24:39;7.20;99.90
64689;DHT22;62504;46.070;14.492;2022-12-29T08:27:05;7.20;99.90
64689;DHT22;62504;46.070;14.492;2022-12-29T08:29:31;7.20;99.90
64689;DHT22;62504;46.070;14.492;2022-12-29T08:31:56;7.20;99.90
64689;DHT22;62504;46.070;14.492;2022-12-29T08:34:22;7.10;99.90
64689;DHT22;62504;46.070;14.492;2022-12-29T08:36:48;7.20;99.90
64689;DHT22;62504;46.070;14.492;2022-12-29T08:39:13;7.20;99.90
64689;DHT22;62504;46.070;14.492;2022-12-29T08:41:39;7.10;99.90
64689;DHT22;62504;46.070;14.492;2022-12-29T08:44:05;7.00;99.90
64689;DHT22;62504;46.070;14.492;2022-12-29T08:46:31;7.10;99.90
64689;DHT22;62504;46.070;14.492;2022-12-29T08:48:56;6.90;99.90
64689;DHT22;62504;46.070;14.492;2022-12-29T08:51:22;7.00;99.90
64689;DHT22;62504;46.070;14.492;2022-12-29T08:53:48;6.90;99.90
64689;DHT22;62504;46.070;14.492;2022-12-29T08:56:13;6.90;99.90
64689;DHT22;62504;46.070;14.492;2022-12-29T08:58:39;6.90;99.90
64689;DHT22;62504;46.070;14.492;2022-12-29T09:01:05;7.00;99.90
64689;DHT22;62504;46.070;14.492;2022-12-29T09:03:30;7.10;99.90
64689;DHT22;62504;46.070;14.492;2022-12-29T09:05:56;7.10;99.90
64689;DHT22;62504;46.070;14.492;2022-12-29T09:08:22;7.00;99.90
64689;DHT22;62504;46.070;14.492;2022-12-29T09:10:48;7.10;99.90
64689;DHT22;62504;46.070;14.492;2022-12-29T09:13:14;7.10;99.90
64689;DHT22;62504;46.070;14.492;2022-12-29T09:15:41;7.20;99.90
64689;DHT22;62504;46.070;14.492;2022-12-29T09:18:08;7.20;99.90
64689;DHT22;62504;46.070;14.492;2022-12-29T09:20:34;7.30;99.90
64689;DHT22;62504;46.070;14.492;2022-12-29T09:23:00;7.40;99.90
64689;DHT22;62504;46.070;14.492;2022-12-29T09:25:26;7.40;99.90
64689;DHT22;62504;46.070;14.492;2022-12-29T09:27:52;7.50;99.90
64689;DHT22;62504;46.070;14.492;2022-12-29T09:30:20;7.50;99.90
64689;DHT22;62504;46.070;14.492;2022-12-29T09:32:46;7.40;99.90
64689;DHT22;62504;46.070;14.492;2022-12-29T09:35:13;7.50;99.90
64689;DHT22;62504;46.070;14.492;2022-12-29T09:37:39;7.50;99.90
64689;DHT22;62504;46.070;14.492;2022-12-29T09:40:06;7.60;99.90
64689;DHT22;62504;46.070;14.492;2022-12-29T09:42:38;7.60;99.90
64689;DHT22;62504;46.070;14.492;2022-12-29T09:45:20;7.60;99.90
64689;DHT22;62504;46.070;14.492;2022-12-29T09:47:48;7.60;99.90
64689;DHT22;62504;46.070;14.492;2022-12-29T09:50:24;7.40;99.90
64689;DHT22;62504;46.070;14.492;2022-12-29T09:53:14;7.40;99.90
64689;DHT22;62504;46.070;14.492;2022-12-29T09:55:53;7.40;99.90
64689;DHT22;62504;46.070;14.492;2022-12-29T09:58:47;7.40;99.90
64689;DHT22;62504;46.070;14.492;2022-12-29T10:03:52;7.60;99.90
64689;DHT22;62504;46.070;14.492;2022-12-29T10:17:32;7.80;99.90
64689;DHT22;62504;46.070;14.492;2022-12-29T10:23:39;7.90;99.90
64689;DHT22;62504;46.070;14.492;2022-12-29T10:26:15;8.00;99.90
64689;DHT22;62504;46.070;14.492;2022-12-29T10:31:22;7.90;99.90
64689;DHT22;62504;46.070;14.492;2022-12-29T10:34:00;7.80;99.90
64689;DHT22;62504;46.070;14.492;2022-12-29T10:39:26;8.00;99.90
64689;DHT22;62504;46.070;14.492;2022-12-29T10:44:46;8.00;99.90
64689;DHT22;62504;46.070;14.492;2022-12-29T10:47:18;7.90;99.90
64689;DHT22;62504;46.070;14.492;2022-12-29T10:49:46;7.80;99.90
64689;DHT22;62504;46.070;14.492;2022-12-29T10:52:13;7.80;99.90
64689;DHT22;62504;46.070;14.492;2022-12-29T10:57:28;7.90;99.90
64689;DHT22;62504;46.070;14.492;2022-12-29T10:59:56;8.00;99.90
64689;DHT22;62504;46.070;14.492;2022-12-29T11:08:12;7.80;99.90
64689;DHT22;62504;46.070;14.492;2022-12-29T11:10:41;8.00;99.90
64689;DHT22;62504;46.070;14.492;2022-12-29T11:13:19;8.00;99.90
64689;DHT22;62504;46.070;14.492;2022-12-29T11:15:51;8.10;99.90
64689;DHT22;62504;46.070;14.492;2022-12-29T11:18:37;8.20;99.90
64689;DHT22;62504;46.070;14.492;2022-12-29T11:21:06;8.10;99.90
64689;DHT22;62504;46.070;14.492;2022-12-29T11:28:36;8.30;99.90
64689;DHT22;62504;46.070;14.492;2022-12-29T11:31:04;8.40;99.90
64689;DHT22;62504;46.070;14.492;2022-12-29T11:33:31;8.40;99.90
64689;DHT22;62504;46.070;14.492;2022-12-29T11:36:04;8.60;99.90
64689;DHT22;62504;46.070;14.492;2022-12-29T11:38:42;8.70;99.90
64689;DHT22;62504;46.070;14.492;2022-12-29T11:41:12;8.70;99.90
64689;DHT22;62504;46.070;14.492;2022-12-29T11:43:41;8.60;99.90
64689;DHT22;62504;46.070;14.492;2022-12-29T11:46:18;8.50;99.90
64689;DHT22;62504;46.070;14.492;2022-12-29T11:48:46;8.60;99.90
64689;DHT22;62504;46.070;14.492;2022-12-29T11:51:20;8.70;99.90
64689;DHT22;62504;46.070;14.492;2022-12-29T11:53:50;8.70;99.90
64689;DHT22;62504;46.070;14.492;2022-12-29T11:56:21;8.60;99.90
64689;DHT22;62504;46.070;14.492;2022-12-29T11:58:49;8.40;99.90
64689;DHT22;62504;46.070;14.492;2022-12-29T12:01:28;8.30;99.90
64689;DHT22;62504;46.070;14.492;2022-12-29T12:04:10;8.40;99.90
64689;DHT22;62504;46.070;14.492;2022-12-29T12:06:48;8.60;99.90
64689;DHT22;62504;46.070;14.492;2022-12-29T12:09:35;8.60;99.90
64689;DHT22;62504;46.070;14.492;2022-12-29T12:12:03;8.70;99.90
64689;DHT22;62504;46.070;14.492;2022-12-29T12:14:41;8.70;99.90
64689;DHT22;62504;46.070;14.492;2022-12-29T12:17:18;8.80;99.90
64689;DHT22;62504;46.070;14.492;2022-12-29T12:19:56;8.70;99.90
64689;DHT22;62504;46.070;14.492;2022-12-29T12:22:34;8.80;99.90
64689;DHT22;62504;46.070;14.492;2022-12-29T12:25:20;8.90;99.90
64689;DHT22;62504;46.070;14.492;2022-12-29T12:28:07;9.00;99.90
64689;DHT22;62504;46.070;14.492;2022-12-29T12:30:44;8.90;99.90
64689;DHT22;62504;46.070;14.492;2022-12-29T12:33:28;9.10;99.90
64689;DHT22;62504;46.070;14.492;2022-12-29T12:57:36;9.40;99.90
64689;DHT22;62504;46.070;14.492;2022-12-29T13:00:12;9.30;99.90
64689;DHT22;62504;46.070;14.492;2022-12-29T13:03:13;9.40;99.90
64689;DHT22;62504;46.070;14.492;2022-12-29T13:19:08;9.70;99.90
64689;DHT22;62504;46.070;14.492;2022-12-29T13:24:15;9.80;99.90
64689;DHT22;62504;46.070;14.492;2022-12-29T13:26:54;9.80;99.90
64689;DHT22;62504;46.070;14.492;2022-12-29T13:34:15;10.10;99.90
64689;DHT22;62504;46.070;14.492;2022-12-29T13:36:57;10.20;99.90
64689;DHT22;62504;46.070;14.492;2022-12-29T13:39:34;10.30;99.90
64689;DHT22;62504;46.070;14.492;2022-12-29T13:42:02;10.30;99.90
64689;DHT22;62504;46.070;14.492;2022-12-29T13:44:34;10.40;99.90
64689;DHT22;62504;46.070;14.492;2022-12-29T13:49:47;10.50;99.90
64689;DHT22;62504;46.070;14.492;2022-12-29T13:52:25;10.40;99.90
64689;DHT22;62504;46.070;14.492;2022-12-29T14:06:29;10.40;99.90
64689;DHT22;62504;46.070;14.492;2022-12-29T14:11:34;10.40;99.90
64689;DHT22;62504;46.070;14.492;2022-12-29T14:14:25;10.50;99.90
64689;DHT22;62504;46.070;14.492;2022-12-29T14:16:53;10.50;99.90
64689;DHT22;62504;46.070;14.492;2022-12-29T14:19:39;10.50;99.90
64689;DHT22;62504;46.070;14.492;2022-12-29T14:22:07;10.60;99.90
64689;DHT22;62504;46.070;14.492;2022-12-29T14:34:46;10.50;99.90
64689;DHT22;62504;46.070;14.492;2022-12-29T14:40:34;10.40;99.90
64689;DHT22;62504;46.070;14.492;2022-12-29T14:43:00;10.40;99.90
64689;DHT22;62504;46.070;14.492;2022-12-29T14:45:27;10.40;99.90
64689;DHT22;62504;46.070;14.492;2022-12-29T14:47:54;10.40;99.90
64689;DHT22;62504;46.070;14.492;2022-12-29T14:50:40;10.40;99.90
64689;DHT22;62504;46.070;14.492;2022-12-29T14:53:10;10.40;99.90
64689;DHT22;62504;46.070;14.492;2022-12-29T14:55:57;10.40;99.90
64689;DHT22;62504;46.070;14.492;2022-12-29T15:00:52;10.30;99.90
64689;DHT22;62504;46.070;14.492;2022-12-29T15:03:20;10.30;99.90
64689;DHT22;62504;46.070;14.492;2022-12-29T15:05:51;10.30;99.90
64689;DHT22;62504;46.070;14.492;2022-12-29T15:08:21;10.30;99.90
64689;DHT22;62504;46.070;14.492;2022-12-29T15:11:13;10.30;99.90
64689;DHT22;62504;46.070;14.492;2022-12-29T15:13:41;10.30;99.90
64689;DHT22;62504;46.070;14.492;2022-12-29T15:18:52;10.20;99.90
64689;DHT22;62504;46.070;14.492;2022-12-29T15:21:24;10.20;99.90
64689;DHT22;62504;46.070;14.492;2022-12-29T15:23:50;10.20;99.90
64689;DHT22;62504;46.070;14.492;2022-12-29T15:26:19;10.20;99.90
64689;DHT22;62504;46.070;14.492;2022-12-29T15:28:52;10.20;99.90
64689;DHT22;62504;46.070;14.492;2022-12-29T15:33:46;10.20;99.90
64689;DHT22;62504;46.070;14.492;2022-12-29T15:36:26;10.20;99.90
64689;DHT22;62504;46.070;14.492;2022-12-29T15:38:52;10.10;99.90
64689;DHT22;62504;46.070;14.492;2022-12-29T15:46:30;10.10;99.90
64689;DHT22;62504;46.070;14.492;2022-12-29T15:48:57;10.10;99.90
64689;DHT22;62504;46.070;14.492;2022-12-29T15:51:33;10.20;99.90
64689;DHT22;62504;46.070;14.492;2022-12-29T15:54:00;10.20;99.90
64689;DHT22;62504;46.070;14.492;2022-12-29T15:56:29;10.20;99.90
64689;DHT22;62504;46.070;14.492;2022-12-29T15:58:54;10.30;99.90
64689;DHT22;62504;46.070;14.492;2022-12-29T16:01:40;10.20;99.90
64689;DHT22;62504;46.070;14.492;2022-12-29T16:04:08;10.20;99.90
64689;DHT22;62504;46.070;14.492;2022-12-29T16:06:53;10.20;99.90
64689;DHT22;62504;46.070;14.492;2022-12-29T16:09:35;10.20;99.90
64689;DHT22;62504;46.070;14.492;2022-12-29T16:12:07;10.30;99.90
64689;DHT22;62504;46.070;14.492;2022-12-29T16:14:50;10.30;99.90
64689;DHT22;62504;46.070;14.492;2022-12-29T16:17:20;10.30;99.90
64689;DHT22;62504;46.070;14.492;2022-12-29T16:19:58;10.30;99.90
64689;DHT22;62504;46.070;14.492;2022-12-29T16:22:33;10.40;99.90
64689;DHT22;62504;46.070;14.492;2022-12-29T16:25:21;10.30;99.90
64689;DHT22;62504;46.070;14.492;2022-12-29T16:27:47;10.20;99.90
64689;DHT22;62504;46.070;14.492;2022-12-29T16:30:25;10.20;99.90
64689;DHT22;62504;46.070;14.492;2022-12-29T16:33:02;10.10;99.90
64689;DHT22;62504;46.070;14.492;2022-12-29T16:35:39;10.10;99.90
64689;DHT22;62504;46.070;14.492;2022-12-29T16:38:15;10.10;99.90
64689;DHT22;62504;46.070;14.492;2022-12-29T16:41:02;10.10;99.90
64689;DHT22;62504;46.070;14.492;2022-12-29T16:43:34;10.10;99.90
64689;DHT22;62504;46.070;14.492;2022-12-29T16:46:21;10.20;99.90
64689;DHT22;62504;46.070;14.492;2022-12-29T16:48:52;10.20;99.90
64689;DHT22;62504;46.070;14.492;2022-12-29T16:51:28;10.10;99.90
64689;DHT22;62504;46.070;14.492;2022-12-29T16:53:55;10.10;99.90
64689;DHT22;62504;46.070;14.492;2022-12-29T16:56:23;10.20;99.90
64689;DHT22;62504;46.070;14.492;2022-12-29T16:59:08;10.30;99.90
64689;DHT22;62504;46.070;14.492;2022-12-29T17:01:42;10.30;99.90
64689;DHT22;62504;46.070;14.492;2022-12-29T17:04:10;10.40;99.90
64689;DHT22;62504;46.070;14.492;2022-12-29T17:06:37;10.40;99.90
64689;DHT22;62504;46.070;14.492;2022-12-29T17:09:10;10.30;99.90
64689;DHT22;62504;46.070;14.492;2022-12-29T17:11:41;10.20;99.90
64689;DHT22;62504;46.070;14.492;2022-12-29T17:14:39;10.20;99.90
64689;DHT22;62504;46.070;14.492;2022-12-29T17:20:14;10.10;99.90
64689;DHT22;62504;46.070;14.492;2022-12-29T17:22:40;10.20;99.90
64689;DHT22;62504;46.070;14.492;2022-12-29T17:25:08;10.10;99.90
64689;DHT22;62504;46.070;14.492;2022-12-29T17:27:45;10.20;99.90
64689;DHT22;62504;46.070;14.492;2022-12-29T17:30:15;10.10;99.90
64689;DHT22;62504;46.070;14.492;2022-12-29T17:32:42;10.10;99.90
64689;DHT22;62504;46.070;14.492;2022-12-29T17:35:16;10.10;99.90
64689;DHT22;62504;46.070;14.492;2022-12-29T17:37:42;10.10;99.90
64689;DHT22;62504;46.070;14.492;2022-12-29T17:40:16;10.10;99.90
64689;DHT22;62504;46.070;14.492;2022-12-29T17:42:50;10.10;99.90
64689;DHT22;62504;46.070;14.492;2022-12-29T17:45:20;10.10;99.90
64689;DHT22;62504;46.070;14.492;2022-12-29T17:47:47;10.10;99.90
64689;DHT22;62504;46.070;14.492;2022-12-29T17:50:23;10.00;99.90
64689;DHT22;62504;46.070;14.492;2022-12-29T17:52:57;10.00;99.90
64689;DHT22;62504;46.070;14.492;2022-12-29T17:55:24;10.10;99.90
64689;DHT22;62504;46.070;14.492;2022-12-29T17:57:51;10.00;99.90
64689;DHT22;62504;46.070;14.492;2022-12-29T18:00:19;10.00;99.90
64689;DHT22;62504;46.070;14.492;2022-12-29T18:02:45;10.10;99.90
64689;DHT22;62504;46.070;14.492;2022-12-29T18:05:20;10.10;99.90
64689;DHT22;62504;46.070;14.492;2022-12-29T18:07:50;10.10;99.90
64689;DHT22;62504;46.070;14.492;2022-12-29T18:10:17;10.20;99.90
64689;DHT22;62504;46.070;14.492;2022-12-29T18:12:45;10.10;99.90
64689;DHT22;62504;46.070;14.492;2022-12-29T18:17:45;10.10;99.90
64689;DHT22;62504;46.070;14.492;2022-12-29T18:20:11;10.20;99.90
64689;DHT22;62504;46.070;14.492;2022-12-29T18:22:37;10.10;99.90
64689;DHT22;62504;46.070;14.492;2022-12-29T18:25:22;10.20;99.90
64689;DHT22;62504;46.070;14.492;2022-12-29T18:27:49;10.30;99.90
64689;DHT22;62504;46.070;14.492;2022-12-29T18:30:16;10.40;99.90
64689;DHT22;62504;46.070;14.492;2022-12-29T18:32:41;10.30;99.90
64689;DHT22;62504;46.070;14.492;2022-12-29T18:35:21;10.30;99.90